首页
METAR-TAF:

METAR-TAF

机场 :

Waukegan Regional Airport

Waukegan, 伊利诺伊州, 美国

纬度: 42-25N, 经度: 087-52W, 海拔: 222米

当前天气观测

该预报发布于15分钟前的20:55 UTC
风速12节,风向北转东北,有时为19节阵风
温度 3°C
湿度 75%
气压 1011 hPa
能見度: 16.1公里
阴天层高于11000英尺

METAR: KUGN 242055Z 03012G19KT 10SM OVC110 03/M01 A2984 RMK AO2 SLP116 T00281011 56015

时间: 15:10 (21:10 UTC)


TAF: 丢失

超过4000个机场的气象观测和天气预报(METAR&TAF报告)。

可查询的气象台以黄色和红色小点在地图上表示。

将鼠标移到小点上方,可查看气象台名称。

然后点击查看天气观测和预报。

如需切换地图:点击带黑十字的绿色按钮放大地图;点击带横线的绿色按钮缩小地图;或者点击绿色箭头查看邻近地区的地图。


METAR-TAF: